createdAt,value
2023-02-26T00:01:28.778Z,99911.09
2023-02-26T00:03:57.904Z,99900.78
2023-02-26T00:06:26.311Z,99909.56
2023-02-26T00:08:53.816Z,99920.06
2023-02-26T00:11:22.365Z,99914.06
2023-02-26T00:13:49.341Z,99915.94
2023-02-26T00:16:24.948Z,99905.69
2023-02-26T00:18:52.130Z,99917.03
2023-02-26T00:21:20.187Z,99922.28
2023-02-26T00:23:47.049Z,99923.25
2023-02-26T00:26:13.583Z,99926.78
2023-02-26T00:28:41.032Z,99935.56
2023-02-26T00:31:08.382Z,99933.03
2023-02-26T00:33:35.361Z,99940.06
2023-02-26T00:36:29.333Z,99939.38
2023-02-26T00:38:55.889Z,99938.47
2023-02-26T00:41:23.028Z,99943.72
2023-02-26T00:43:49.807Z,99949.88
2023-02-26T00:46:34.741Z,99946.47
2023-02-26T00:49:44.918Z,99959.56
2023-02-26T00:52:19.248Z,99959.56
2023-02-26T00:54:45.825Z,99963.09
2023-02-26T00:57:12.256Z,99971.00
2023-02-26T00:59:38.984Z,99961.47
2023-02-26T01:02:05.479Z,99971.09
2023-02-26T01:04:32.300Z,99973.75
2023-02-26T01:06:59.076Z,99973.84
2023-02-26T01:09:33.943Z,99975.59
2023-02-26T01:12:04.439Z,99984.31
2023-02-26T01:14:32.618Z,99984.31
2023-02-26T01:17:21.188Z,99985.28
2023-02-26T01:19:55.623Z,99984.38
2023-02-26T01:22:42.561Z,99984.44
2023-02-26T01:25:16.268Z,99992.16
2023-02-26T01:27:42.964Z,99991.22
2023-02-26T01:30:10.290Z,99988.59
2023-02-26T01:32:53.321Z,99994.66
2023-02-26T01:35:44.187Z,99991.16
2023-02-26T01:38:25.810Z,99993.75
2023-02-26T01:41:06.996Z,99992.88
2023-02-26T01:43:36.472Z,100000.66
2023-02-26T01:46:18.303Z,99997.28
2023-02-26T01:48:56.659Z,99993.88
2023-02-26T01:51:47.260Z,99993.94
2023-02-26T01:54:16.309Z,100002.56
2023-02-26T01:56:45.809Z,99996.59
2023-02-26T01:59:15.893Z,99998.41
2023-02-26T02:01:43.215Z,99999.31
2023-02-26T02:04:16.028Z,100007.19
2023-02-26T02:06:43.358Z,100010.72
2023-02-26T02:09:10.591Z,100010.75
2023-02-26T02:12:06.129Z,100022.19
2023-02-26T02:14:45.831Z,100025.66
2023-02-26T02:17:33.115Z,100031.00
2023-02-26T02:20:22.815Z,100031.06
2023-02-26T02:22:49.214Z,100027.66
2023-02-26T02:26:09.354Z,100038.16
2023-02-26T02:29:06.516Z,100039.91
2023-02-26T02:31:43.872Z,100040.81
2023-02-26T02:34:21.365Z,100042.53
2023-02-26T02:37:02.550Z,100041.72
2023-02-26T02:39:43.375Z,100046.94
2023-02-26T02:42:35.462Z,100051.28
2023-02-26T02:45:19.414Z,100051.31
2023-02-26T02:47:52.478Z,100053.94
2023-02-26T02:50:38.269Z,100065.25
2023-02-26T02:53:13.987Z,100071.34
2023-02-26T02:55:50.056Z,100075.72
2023-02-26T02:58:25.325Z,100078.31
2023-02-26T03:00:57.941Z,100076.63
2023-02-26T03:03:55.163Z,100075.84
2023-02-26T03:06:21.750Z,100083.63
2023-02-26T03:08:50.084Z,100085.38
2023-02-26T03:11:16.745Z,100101.00
2023-02-26T03:13:44.579Z,100082.88
2023-02-26T03:16:26.541Z,100102.81
2023-02-26T03:19:23.351Z,100096.78
2023-02-26T03:21:56.501Z,100099.34
2023-02-26T03:24:38.357Z,100100.25
2023-02-26T03:27:14.414Z,100107.16
2023-02-26T03:29:49.540Z,100107.16
2023-02-26T03:32:24.910Z,100113.22
2023-02-26T03:35:01.497Z,100114.97
2023-02-26T03:37:37.736Z,100115.84
2023-02-26T03:40:12.021Z,100120.16
2023-02-26T03:42:47.683Z,100129.63
2023-02-26T03:45:19.172Z,100127.91
2023-02-26T03:47:49.515Z,100133.97
2023-02-26T03:50:22.112Z,100137.41
2023-02-26T03:52:50.874Z,100133.97
2023-02-26T03:55:22.164Z,100143.50
2023-02-26T03:57:49.949Z,100142.63
2023-02-26T04:00:17.860Z,100153.06
2023-02-26T04:02:54.508Z,100153.94
2023-02-26T04:05:26.449Z,100156.59
2023-02-26T04:07:53.573Z,100160.91
2023-02-26T04:10:25.295Z,100154.03
2023-02-26T04:12:51.756Z,100163.53
2023-02-26T04:15:18.459Z,100163.59
2023-02-26T04:17:44.973Z,100178.31
2023-02-26T04:20:12.004Z,100176.59
2023-02-26T04:22:38.653Z,100180.06
2023-02-26T04:25:05.698Z,100182.69
2023-02-26T04:27:32.148Z,100187.00
2023-02-26T04:29:58.574Z,100195.66
2023-02-26T04:32:25.178Z,100193.09
2023-02-26T04:34:51.772Z,100194.81
2023-02-26T04:37:18.280Z,100203.50
2023-02-26T04:39:44.759Z,100205.28
2023-02-26T04:42:11.259Z,100205.28
2023-02-26T04:44:37.786Z,100211.38
2023-02-26T04:47:04.315Z,100215.69
2023-02-26T04:49:31.390Z,100217.47
2023-02-26T04:51:57.834Z,100223.56
2023-02-26T04:54:24.497Z,100217.50
2023-02-26T04:56:50.949Z,100220.97
2023-02-26T04:59:17.401Z,100226.16
2023-02-26T05:01:43.972Z,100223.56
2023-02-26T05:04:10.658Z,100228.78
2023-02-26T05:06:37.278Z,100231.38
2023-02-26T05:09:04.342Z,100226.19
2023-02-26T05:11:30.907Z,100236.63
2023-02-26T05:13:57.415Z,100235.75
2023-02-26T05:16:24.180Z,100237.47
2023-02-26T05:18:50.883Z,100247.00
2023-02-26T05:21:17.460Z,100257.41
2023-02-26T05:23:44.053Z,100250.50
2023-02-26T05:26:10.697Z,100251.41
2023-02-26T05:28:38.121Z,100264.38
2023-02-26T05:31:04.976Z,100271.28
2023-02-26T05:33:31.569Z,100273.88
2023-02-26T05:35:58.166Z,100278.22
2023-02-26T05:38:24.717Z,100268.72
2023-02-26T05:40:51.269Z,100275.66
2023-02-26T05:43:17.736Z,100273.06
2023-02-26T05:45:44.193Z,100282.56
2023-02-26T05:48:11.218Z,100287.78
2023-02-26T05:50:37.696Z,100295.56
2023-02-26T05:53:04.129Z,100299.00
2023-02-26T05:55:30.629Z,100297.28
2023-02-26T05:57:57.179Z,100299.03
2023-02-26T06:00:23.677Z,100298.19
2023-02-26T06:02:50.164Z,100309.44
2023-02-26T06:05:16.743Z,100307.69
2023-02-26T06:07:43.277Z,100314.63
2023-02-26T06:10:11.027Z,100328.44
2023-02-26T06:12:38.439Z,100322.41
2023-02-26T06:15:06.175Z,100329.31
2023-02-26T06:17:33.110Z,100326.72
2023-02-26T06:20:00.057Z,100329.31
2023-02-26T06:22:26.591Z,100334.50
2023-02-26T06:24:55.034Z,100336.22
2023-02-26T06:27:22.590Z,100350.06
2023-02-26T06:29:49.155Z,100346.63
2023-02-26T06:32:15.660Z,100347.47
2023-02-26T06:34:42.454Z,100355.25
2023-02-26T06:37:09.012Z,100365.63
2023-02-26T06:39:35.592Z,100370.81
2023-02-26T06:42:02.149Z,100377.75
2023-02-26T06:44:28.802Z,100381.22
2023-02-26T06:46:55.233Z,100381.22
2023-02-26T06:49:21.738Z,100390.72
2023-02-26T06:51:48.328Z,100395.91
2023-02-26T06:54:14.939Z,100396.78
2023-02-26T06:56:41.415Z,100404.56
2023-02-26T06:59:08.016Z,100404.56
2023-02-26T07:01:34.471Z,100414.03
2023-02-26T07:04:01.064Z,100420.94
2023-02-26T07:06:28.236Z,100415.75
2023-02-26T07:08:55.686Z,100425.28
2023-02-26T07:11:22.833Z,100420.06
2023-02-26T07:13:49.445Z,100429.53
2023-02-26T07:16:15.945Z,100420.91
2023-02-26T07:18:42.547Z,100430.41
2023-02-26T07:21:09.174Z,100426.06
2023-02-26T07:23:35.683Z,100431.25
2023-02-26T07:26:02.415Z,100426.03
2023-02-26T07:28:28.891Z,100436.41
2023-02-26T07:30:56.421Z,100447.63
2023-02-26T07:33:23.176Z,100450.19
2023-02-26T07:35:49.751Z,100452.78
2023-02-26T07:38:17.584Z,100459.69
2023-02-26T07:40:45.713Z,100459.66
2023-02-26T07:43:12.720Z,100462.22
2023-02-26T07:45:39.175Z,100465.66
2023-02-26T07:48:05.732Z,100466.50
2023-02-26T07:50:33.630Z,100471.69
2023-02-26T07:53:00.356Z,100474.25
2023-02-26T07:55:27.721Z,100475.09
2023-02-26T07:57:54.511Z,100482.88
2023-02-26T08:00:21.459Z,100482.84
2023-02-26T08:02:48.075Z,100491.47
2023-02-26T08:05:14.640Z,100484.50
2023-02-26T08:07:41.252Z,100487.91
2023-02-26T08:10:08.484Z,100490.50
2023-02-26T08:12:35.088Z,100502.56
2023-02-26T08:15:01.591Z,100498.22
2023-02-26T08:17:28.279Z,100505.09
2023-02-26T08:19:54.774Z,100512.88
2023-02-26T08:22:22.038Z,100509.38
2023-02-26T08:24:48.679Z,100508.47
2023-02-26T08:27:15.162Z,100507.56
2023-02-26T08:29:42.798Z,100514.47
2023-02-26T08:32:09.412Z,100516.13
2023-02-26T08:34:35.997Z,100516.09
2023-02-26T08:37:02.553Z,100522.97
2023-02-26T08:39:32.963Z,100527.28
2023-02-26T08:41:59.404Z,100529.84
2023-02-26T08:44:25.936Z,100537.56
2023-02-26T08:46:52.502Z,100541.84
2023-02-26T08:49:19.140Z,100541.81
2023-02-26T08:51:45.631Z,100551.31
2023-02-26T08:54:12.173Z,100537.44
2023-02-26T08:56:38.925Z,100541.69
2023-02-26T08:59:05.757Z,100548.59
2023-02-26T09:01:32.524Z,100563.28
2023-02-26T09:03:59.108Z,100553.69
2023-02-26T09:06:26.034Z,100562.28
2023-02-26T09:08:52.680Z,100559.66
2023-02-26T09:11:19.130Z,100571.72
2023-02-26T09:13:45.655Z,100571.66
2023-02-26T09:16:12.197Z,100575.06
2023-02-26T09:18:38.820Z,100584.56
2023-02-26T09:21:05.608Z,100591.41
2023-02-26T09:23:32.134Z,100580.97
2023-02-26T09:25:58.708Z,100593.03
2023-02-26T09:28:26.505Z,100594.69
2023-02-26T09:30:54.821Z,100595.47
2023-02-26T09:33:22.452Z,100591.94
2023-02-26T09:35:50.486Z,100589.28
2023-02-26T09:38:17.632Z,100597.88
2023-02-26T09:40:50.978Z,100600.41
2023-02-26T09:43:54.578Z,100593.44
2023-02-26T09:46:29.979Z,100609.81
2023-02-26T09:49:04.252Z,100607.13
2023-02-26T09:51:33.319Z,100609.69
2023-02-26T09:54:02.626Z,100616.56
2023-02-26T09:56:36.864Z,100606.97
2023-02-26T09:59:03.507Z,100613.84
2023-02-26T10:01:34.058Z,100617.22
2023-02-26T10:04:22.940Z,100613.69
2023-02-26T10:07:14.436Z,100621.38
2023-02-26T10:09:57.286Z,100628.22
2023-02-26T10:12:27.764Z,100632.41
2023-02-26T10:15:13.268Z,100628.81
2023-02-26T10:17:42.503Z,100628.63
2023-02-26T10:20:17.429Z,100641.50
2023-02-26T10:23:06.442Z,100641.31
2023-02-26T10:26:06.498Z,100645.47
2023-02-26T10:28:49.090Z,100648.72
2023-02-26T10:31:35.546Z,100641.53
2023-02-26T10:34:30.514Z,100656.03
2023-02-26T10:37:20.787Z,100654.88
2023-02-26T10:39:59.581Z,100659.66
2023-02-26T10:42:31.925Z,100658.50
2023-02-26T10:45:09.588Z,100658.19
2023-02-26T10:47:36.137Z,100658.63
2023-02-26T10:50:14.563Z,100664.53
2023-02-26T10:52:43.570Z,100661.69
2023-02-26T10:55:27.695Z,100662.41
2023-02-26T10:58:05.302Z,100666.50
2023-02-26T11:00:35.240Z,100656.66
2023-02-26T11:03:04.568Z,100668.56
2023-02-26T11:05:33.180Z,100664.81
2023-02-26T11:08:28.608Z,100664.66
2023-02-26T11:11:00.953Z,100667.81
2023-02-26T11:13:30.600Z,100653.66
2023-02-26T11:16:04.076Z,100667.41
2023-02-26T11:18:38.413Z,100660.31
2023-02-26T11:21:06.857Z,100667.19
2023-02-26T11:26:14.638Z,100662.69
2023-02-26T11:28:50.061Z,100665.16
2023-02-26T11:31:19.820Z,100665.78
2023-02-26T11:33:51.758Z,100670.78
2023-02-26T11:36:20.776Z,100672.28
2023-02-26T11:38:53.796Z,100667.91
2023-02-26T11:41:20.220Z,100664.38
2023-02-26T11:43:50.617Z,100670.53
2023-02-26T11:46:17.155Z,100667.94
2023-02-26T11:48:47.478Z,100669.53
2023-02-26T11:51:18.858Z,100675.88
2023-02-26T11:53:52.357Z,100669.78
2023-02-26T11:56:41.969Z,100671.06
2023-02-26T11:59:19.559Z,100663.72
2023-02-26T12:01:47.262Z,100672.50
2023-02-26T12:04:18.776Z,100669.75
2023-02-26T12:06:49.052Z,100675.28
2023-02-26T12:09:15.599Z,100674.84
2023-02-26T12:12:01.607Z,100687.06
2023-02-26T12:14:59.091Z,100678.69
2023-02-26T12:17:47.438Z,100685.97
2023-02-26T12:20:38.370Z,100679.06
2023-02-26T12:23:13.591Z,100677.47
2023-02-26T12:25:52.334Z,100682.31
2023-02-26T12:28:39.419Z,100674.22
2023-02-26T12:31:27.109Z,100675.38
2023-02-26T12:34:12.243Z,100677.03
2023-02-26T12:36:48.831Z,100664.25
2023-02-26T12:39:37.978Z,100667.88
2023-02-26T12:42:07.606Z,100666.41
2023-02-26T12:44:40.026Z,100661.81
2023-02-26T12:47:15.825Z,100671.63
2023-02-26T12:49:49.236Z,100671.19
2023-02-26T12:52:24.593Z,100669.81
2023-02-26T12:54:53.979Z,100668.28
2023-02-26T12:57:55.255Z,100678.50
2023-02-26T13:00:40.394Z,100679.34
2023-02-26T13:03:41.171Z,100676.50
2023-02-26T13:06:43.747Z,100664.00
2023-02-26T13:09:31.099Z,100677.16
2023-02-26T13:12:28.501Z,100669.94
2023-02-26T13:15:11.478Z,100659.09
2023-02-26T13:17:51.619Z,100652.69
2023-02-26T13:20:23.955Z,100654.91
2023-02-26T13:23:13.870Z,100650.78
2023-02-26T13:25:56.243Z,100655.56
2023-02-26T13:28:51.608Z,100662.69
2023-02-26T13:31:55.685Z,100662.16
2023-02-26T13:34:42.288Z,100661.81
2023-02-26T13:37:23.166Z,100646.50
2023-02-26T13:40:14.664Z,100659.31
2023-02-26T13:42:49.742Z,100658.06
2023-02-26T13:45:43.316Z,100657.47
2023-02-26T13:48:30.798Z,100650.78
2023-02-26T13:51:09.576Z,100644.44
2023-02-26T13:53:48.873Z,100650.91
2023-02-26T13:56:22.405Z,100633.75
2023-02-26T13:58:55.351Z,100637.13
2023-02-26T14:01:31.783Z,100643.53
2023-02-26T14:04:21.456Z,100645.19
2023-02-26T14:07:13.128Z,100643.97
2023-02-26T14:09:51.726Z,100646.81
2023-02-26T14:12:33.931Z,100642.84
2023-02-26T14:15:00.553Z,100639.06
2023-02-26T14:17:39.489Z,100655.91
2023-02-26T14:20:18.400Z,100650.84
2023-02-26T14:22:50.584Z,100648.75
2023-02-26T14:25:36.137Z,100655.06
2023-02-26T14:28:21.274Z,100644.72
2023-02-26T14:30:52.283Z,100650.34
2023-02-26T14:33:27.787Z,100649.94
2023-02-26T14:35:54.720Z,100646.91
2023-02-26T14:38:25.745Z,100644.34
2023-02-26T14:41:26.004Z,100650.31
2023-02-26T14:44:16.002Z,100658.75
2023-02-26T14:46:44.398Z,100645.88
2023-02-26T14:49:38.416Z,100653.78
2023-02-26T14:52:17.009Z,100652.44
2023-02-26T14:55:12.270Z,100650.47
2023-02-26T14:57:41.596Z,100665.03
2023-02-26T15:00:39.120Z,100660.34
2023-02-26T15:03:35.869Z,100669.81
2023-02-26T15:06:27.170Z,100658.22
2023-02-26T15:09:05.573Z,100649.72
2023-02-26T15:11:40.848Z,100650.44
2023-02-26T15:14:16.470Z,100653.09
2023-02-26T15:16:52.182Z,100658.31
2023-02-26T15:19:46.564Z,100666.53
2023-02-26T15:22:23.185Z,100663.72
2023-02-26T15:24:49.955Z,100667.09
2023-02-26T15:27:19.478Z,100665.97
2023-02-26T15:29:47.869Z,100670.91
2023-02-26T15:32:29.088Z,100670.75
2023-02-26T15:35:04.622Z,100673.16
2023-02-26T15:37:35.248Z,100672.22
2023-02-26T15:40:05.503Z,100667.16
2023-02-26T15:42:41.465Z,100682.53
2023-02-26T15:45:23.247Z,100689.88
2023-02-26T15:47:57.480Z,100684.31
2023-02-26T15:50:30.921Z,100690.94
2023-02-26T15:53:01.669Z,100688.03
2023-02-26T15:55:35.382Z,100688.28
2023-02-26T15:58:03.868Z,100693.31
2023-02-26T16:00:35.345Z,100703.44
2023-02-26T16:03:01.937Z,100702.56
2023-02-26T16:05:29.461Z,100705.03
2023-02-26T16:07:56.887Z,100695.88
2023-02-26T16:10:38.145Z,100693.91
2023-02-26T16:13:07.097Z,100698.44
2023-02-26T16:15:39.692Z,100698.66
2023-02-26T16:18:16.118Z,100703.97
2023-02-26T16:20:49.323Z,100705.69
2023-02-26T16:23:20.804Z,100698.56
2023-02-26T16:25:54.491Z,100707.09
2023-02-26T16:28:24.275Z,100709.31
2023-02-26T16:30:54.581Z,100708.94
2023-02-26T16:33:23.868Z,100712.84
2023-02-26T16:35:56.999Z,100710.75
2023-02-26T16:38:31.528Z,100725.22
2023-02-26T16:41:06.361Z,100720.44
2023-02-26T16:43:49.731Z,100734.81
2023-02-26T16:46:31.254Z,100730.94
2023-02-26T16:49:04.998Z,100735.69
2023-02-26T16:51:34.724Z,100733.38
2023-02-26T16:54:07.455Z,100732.78
2023-02-26T16:56:42.225Z,100747.16
2023-02-26T16:59:22.559Z,100741.31
2023-02-26T17:01:52.596Z,100742.44
2023-02-26T17:04:23.452Z,100749.63
2023-02-26T17:06:50.207Z,100756.00
2023-02-26T17:09:40.191Z,100752.81
2023-02-26T17:12:40.126Z,100766.97
2023-02-26T17:15:18.241Z,100767.13
2023-02-26T17:17:44.869Z,100762.00
2023-02-26T17:20:12.633Z,100769.19
2023-02-26T17:22:39.615Z,100777.22
2023-02-26T17:25:06.363Z,100777.31
2023-02-26T17:27:36.743Z,100781.00
2023-02-26T17:30:06.030Z,100778.47
2023-02-26T17:32:33.217Z,100782.88
2023-02-26T17:34:59.942Z,100779.50
2023-02-26T17:37:33.358Z,100782.25
2023-02-26T17:40:00.176Z,100786.63
2023-02-26T17:42:26.916Z,100794.50
2023-02-26T17:44:55.164Z,100794.56
2023-02-26T17:47:23.894Z,100799.91
2023-02-26T17:49:50.420Z,100804.31
2023-02-26T17:52:17.225Z,100801.75
2023-02-26T17:54:43.729Z,100811.41
2023-02-26T17:57:17.255Z,100805.44
2023-02-26T17:59:43.786Z,100812.44
2023-02-26T18:02:27.148Z,100810.91
2023-02-26T18:04:54.124Z,100821.38
2023-02-26T18:07:21.798Z,100821.44
2023-02-26T18:09:48.411Z,100825.81
2023-02-26T18:12:19.880Z,100832.06
2023-02-26T18:14:46.598Z,100827.78
2023-02-26T18:17:15.208Z,100828.75
2023-02-26T18:19:42.812Z,100823.59
2023-02-26T18:22:14.012Z,100826.31
2023-02-26T18:24:41.460Z,100824.69
2023-02-26T18:27:21.703Z,100829.16
2023-02-26T18:29:48.338Z,100830.94
2023-02-26T18:32:17.306Z,100834.50
2023-02-26T18:34:44.245Z,100836.22
2023-02-26T18:37:20.345Z,100827.56
2023-02-26T18:39:47.041Z,100835.34
2023-02-26T18:42:34.024Z,100838.88
2023-02-26T18:45:00.545Z,100836.19
2023-02-26T18:47:27.102Z,100840.53
2023-02-26T18:49:53.764Z,100848.34
2023-02-26T18:52:20.478Z,100839.69
2023-02-26T18:54:46.991Z,100847.53
2023-02-26T18:57:13.729Z,100845.78
2023-02-26T18:59:40.309Z,100851.09
2023-02-26T19:02:08.039Z,100856.31
2023-02-26T19:04:34.942Z,100852.81
2023-02-26T19:07:01.637Z,100854.56
2023-02-26T19:09:28.749Z,100856.38
2023-02-26T19:11:57.227Z,100857.28
2023-02-26T19:14:24.655Z,100860.72
2023-02-26T19:16:51.154Z,100861.59
2023-02-26T19:19:18.243Z,100865.94
2023-02-26T19:21:44.845Z,100863.38
2023-02-26T19:24:12.792Z,100864.25
2023-02-26T19:26:40.326Z,100871.25
2023-02-26T19:29:08.632Z,100868.72
2023-02-26T19:31:36.635Z,100863.50
2023-02-26T19:34:04.212Z,100868.81
2023-02-26T19:36:33.775Z,100865.41
2023-02-26T19:39:11.878Z,100873.44
2023-02-26T19:41:38.458Z,100875.13
2023-02-26T19:44:04.913Z,100873.44
2023-02-26T19:46:31.502Z,100873.50
2023-02-26T19:48:58.066Z,100873.53
2023-02-26T19:51:25.139Z,100880.53
2023-02-26T19:53:56.058Z,100878.84
2023-02-26T19:56:22.484Z,100884.97
2023-02-26T19:58:49.153Z,100888.47
2023-02-26T20:01:15.710Z,100894.59
2023-02-26T20:03:42.227Z,100888.59
2023-02-26T20:06:10.150Z,100890.34
2023-02-26T20:08:36.672Z,100893.06
2023-02-26T20:11:03.288Z,100892.28
2023-02-26T20:13:34.536Z,100893.25
2023-02-26T20:16:03.683Z,100888.06
2023-02-26T20:18:31.327Z,100897.72
2023-02-26T20:21:03.341Z,100897.78
2023-02-26T20:23:30.540Z,100896.09
2023-02-26T20:25:58.202Z,100905.75
2023-02-26T20:28:25.472Z,100907.53
2023-02-26T20:30:52.378Z,100909.34
2023-02-26T20:33:21.100Z,100912.91
2023-02-26T20:35:48.106Z,100911.22
2023-02-26T20:38:18.803Z,100916.53
2023-02-26T20:40:46.834Z,100907.84
2023-02-26T20:43:14.075Z,100921.81
2023-02-26T20:45:41.943Z,100921.00
2023-02-26T20:48:09.348Z,100928.00
2023-02-26T20:50:36.456Z,100928.91
2023-02-26T20:53:06.612Z,100931.63
2023-02-26T20:55:33.887Z,100934.25
2023-02-26T20:58:00.457Z,100937.75
2023-02-26T21:00:27.099Z,100940.38
2023-02-26T21:02:53.727Z,100943.88
2023-02-26T21:05:20.783Z,100943.88
2023-02-26T21:07:47.900Z,100945.59
2023-02-26T21:10:16.248Z,100947.31
2023-02-26T21:12:42.881Z,100952.50
2023-02-26T21:15:10.660Z,100955.94
2023-02-26T21:17:38.756Z,100955.91
2023-02-26T21:20:06.801Z,100949.84
2023-02-26T21:22:35.445Z,100954.22
2023-02-26T21:25:03.046Z,100956.03
2023-02-26T21:27:29.533Z,100954.34
2023-02-26T21:29:56.063Z,100951.81
2023-02-26T21:32:22.585Z,100959.72
2023-02-26T21:34:49.180Z,100956.34
2023-02-26T21:37:15.698Z,100959.91
2023-02-26T21:39:42.296Z,100952.16
2023-02-26T21:42:12.028Z,100960.91
2023-02-26T21:44:38.598Z,100964.44
2023-02-26T21:47:05.097Z,100964.47
2023-02-26T21:49:32.010Z,100972.31
2023-02-26T21:51:59.929Z,100968.03
2023-02-26T21:54:26.585Z,100970.69
2023-02-26T21:56:53.527Z,100961.19
2023-02-26T21:59:20.417Z,100965.53
2023-02-26T22:01:46.977Z,100963.84
2023-02-26T22:04:13.570Z,100963.03
2023-02-26T22:06:40.069Z,100969.13
2023-02-26T22:09:06.749Z,100964.81
2023-02-26T22:11:33.278Z,100968.34
2023-02-26T22:13:59.768Z,100966.59
2023-02-26T22:16:26.825Z,100971.88
2023-02-26T22:18:53.427Z,100966.69
2023-02-26T22:21:20.286Z,100963.25
2023-02-26T22:23:46.832Z,100963.25
2023-02-26T22:26:13.312Z,100963.25
2023-02-26T22:28:39.891Z,100961.53
2023-02-26T22:31:06.672Z,100963.28
2023-02-26T22:33:33.411Z,100961.56
2023-02-26T22:36:00.324Z,100970.28
2023-02-26T22:38:27.102Z,100972.00
2023-02-26T22:40:53.825Z,100979.00
2023-02-26T22:43:20.612Z,100980.72
2023-02-26T22:45:48.591Z,100977.28
2023-02-26T22:48:17.030Z,100977.28
2023-02-26T22:50:43.680Z,100981.63
2023-02-26T22:53:10.283Z,100975.59
2023-02-26T22:55:36.894Z,100981.72
2023-02-26T22:58:03.606Z,100990.38
2023-02-26T23:00:30.292Z,100991.28
2023-02-26T23:02:56.791Z,100998.25
2023-02-26T23:05:23.484Z,100996.53
2023-02-26T23:07:50.059Z,100998.28
2023-02-26T23:10:19.667Z,101008.69
2023-02-26T23:12:47.090Z,101000.94
2023-02-26T23:15:14.130Z,100998.34
2023-02-26T23:17:41.885Z,101005.34
2023-02-26T23:20:10.518Z,101009.72
2023-02-26T23:22:37.655Z,101010.63
2023-02-26T23:27:34.497Z,101022.84
2023-02-26T23:30:01.016Z,101019.38
2023-02-26T23:32:27.634Z,101009.00
2023-02-26T23:34:54.164Z,101018.53
2023-02-26T23:37:20.765Z,101024.63
2023-02-26T23:39:48.949Z,101014.22
2023-02-26T23:42:15.606Z,101016.00
2023-02-26T23:44:42.122Z,101018.59
2023-02-26T23:47:08.520Z,101022.09
2023-02-26T23:49:35.145Z,101022.09
2023-02-26T23:52:01.764Z,101020.38
2023-02-26T23:54:28.387Z,101017.78
2023-02-26T23:56:54.896Z,101031.66
2023-02-26T23:59:21.409Z,101024.75
